Time;durP1;ratioP1;P1;durP2;ratioP2;P2;SDS_P1;SDS_P2;PMS_P1;PMS_P2;Temp;Humidity;BMP_temperature;BMP_pressure;BME280_temperature;BME280_humidity;BME280_pressure;Samples;Min_cycle;Max_cycle;Signal;HPM_P1;HPM_P2
2021/04/24 00:00:20;;;;;;;19.77;11.30;;;;;;;6.81;65.21;101793.95;1813947;79;27951;-58
2021/04/24 00:02:50;;;;;;;18.25;11.33;;;;;;;6.81;65.53;101797.95;1813715;78;25657;-59
2021/04/24 00:05:29;;;;;;;20.00;10.78;;;;;;;6.75;65.08;101800.98;1808852;78;25633;-59
2021/04/24 00:08:02;;;;;;;28.55;12.90;;;;;;;6.69;64.96;101803.98;1781691;80;25685;-59
2021/04/24 00:10:34;;;;;;;18.07;11.73;;;;;;;6.62;65.33;101801.27;1781539;80;25708;-59
2021/04/24 00:13:05;;;;;;;25.70;11.55;;;;;;;6.55;65.42;101808.75;1777490;80;26734;-58
2021/04/24 00:15:33;;;;;;;26.60;11.45;;;;;;;6.51;66.11;101807.22;1809723;79;25479;-59
2021/04/24 00:18:08;;;;;;;20.57;11.15;;;;;;;6.45;66.33;101805.73;1777786;80;26251;-61
2021/04/24 00:20:37;;;;;;;;;;;;;;;6.42;66.90;101807.23;1780429;80;25678;-58
2021/04/24 00:23:05;;;;;;;17.15;10.10;;;;;;;6.44;66.69;101811.17;1790252;80;25776;-59
2021/04/24 00:25:34;;;;;;;23.25;10.15;;;;;;;6.40;67.15;101814.01;1747161;80;27527;-59
2021/04/24 00:28:03;;;;;;;24.92;11.15;;;;;;;6.42;67.59;101807.23;1728624;81;25659;-59
2021/04/24 00:30:31;;;;;;;22.22;9.68;;;;;;;6.40;67.02;101807.33;1728685;83;26885;-59
2021/04/24 00:32:59;;;;;;;17.55;10.13;;;;;;;6.47;67.60;101816.34;1728650;82;25703;-58
2021/04/24 00:35:28;;;;;;;20.40;10.70;;;;;;;6.51;67.16;101810.73;1728907;81;25776;-59
2021/04/24 00:37:56;;;;;;;24.90;9.63;;;;;;;6.56;67.67;101818.51;1728678;81;27526;-59
2021/04/24 00:40:24;;;;;;;19.17;9.73;;;;;;;6.61;67.73;101813.78;1728758;82;25723;-59
2021/04/24 00:42:52;;;;;;;19.42;10.03;;;;;;;6.65;67.79;101816.66;1728799;81;25683;-58
2021/04/24 00:45:23;;;;;;;23.55;10.53;;;;;;;6.68;67.56;101820.52;1728737;81;25771;-57
2021/04/24 00:47:54;;;;;;;16.70;9.53;;;;;;;6.72;67.48;101818.05;1754385;81;25759;-58
2021/04/24 00:50:30;;;;;;;16.93;9.15;;;;;;;6.83;67.46;101821.94;1757182;81;28505;-58
2021/04/24 00:53:00;;;;;;;20.20;9.25;;;;;;;6.89;67.16;101819.78;1811623;79;26317;-58
2021/04/24 00:55:29;;;;;;;19.02;10.05;;;;;;;6.94;66.70;101820.86;1745250;81;25778;-58
2021/04/24 00:57:58;;;;;;;20.10;8.73;;;;;;;7.02;66.68;101817.28;1775827;80;25652;-59
2021/04/24 01:00:27;;;;;;;19.85;9.73;;;;;;;7.09;66.25;101822.27;1745344;81;26034;-58
2021/04/24 01:02:57;;;;;;;16.45;8.45;;;;;;;7.10;66.03;101827.55;1745109;81;27732;-58
2021/04/24 01:05:35;;;;;;;21.17;10.05;;;;;;;7.08;65.60;101813.39;1745182;82;25496;-58
2021/04/24 01:08:05;;;;;;;18.75;8.40;;;;;;;7.10;65.56;101819.98;1757350;81;25782;-58
2021/04/24 01:10:40;;;;;;;18.57;10.05;;;;;;;7.03;65.42;101827.03;1745712;81;26448;-59
2021/04/24 01:13:08;;;;;;;19.62;9.10;;;;;;;6.91;65.00;101825.04;1739454;81;25673;-59
2021/04/24 01:15:37;;;;;;;21.77;9.18;;;;;;;6.82;65.20;101818.87;1739506;82;27551;-59
2021/04/24 01:18:08;;;;;;;14.73;8.38;;;;;;;6.82;65.17;101821.55;1813407;78;25500;-59
2021/04/24 01:20:39;;;;;;;13.68;8.98;;;;;;;6.82;65.01;101818.87;1816574;78;25444;-59
2021/04/24 01:23:09;;;;;;;14.63;9.53;;;;;;;6.81;65.19;101819.84;1783564;79;26533;-59
2021/04/24 01:25:43;;;;;;;20.60;9.53;;;;;;;6.80;65.21;101822.12;1761002;79;26112;-59
2021/04/24 01:28:11;;;;;;;20.88;9.80;;;;;;;6.78;65.18;101820.00;1752652;81;27523;-59
2021/04/24 01:30:43;;;;;;;24.63;9.68;;;;;;;6.79;65.11;101824.41;1752441;81;26287;-59
2021/04/24 01:33:14;;;;;;;15.72;8.55;;;;;;;6.78;65.11;101822.19;1752353;80;25905;-59
2021/04/24 01:35:44;;;;;;;19.15;9.40;;;;;;;6.76;64.92;101818.77;1752534;81;25706;-59
2021/04/24 01:38:12;;;;;;;19.92;9.68;;;;;;;6.74;64.78;101826.84;1752410;81;26076;-59
2021/04/24 01:40:41;;;;;;;18.82;8.98;;;;;;;6.68;64.79;101821.85;1752468;81;27678;-59
2021/04/24 01:43:10;;;;;;;18.17;9.80;;;;;;;6.65;64.63;101824.69;1796077;79;25626;-59
2021/04/24 01:45:39;;;;;;;18.02;10.80;;;;;;;6.63;64.81;101827.06;1836227;78;25775;-59
2021/04/24 01:48:09;;;;;;;24.20;11.53;;;;;;;6.59;64.82;101826.37;1722493;82;25763;-59
2021/04/24 01:50:42;;;;;;;18.30;11.18;;;;;;;6.56;65.15;101826.53;1739502;82;25691;-59
2021/04/24 01:53:20;;;;;;;20.80;11.33;;;;;;;6.49;65.44;101823.34;1739599;82;26745;-59
2021/04/24 01:55:50;;;;;;;17.75;10.20;;;;;;;6.47;65.41;101827.03;1784343;80;25762;-59
2021/04/24 01:58:22;;;;;;;18.70;10.95;;;;;;;6.41;65.79;101826.43;1784222;80;26332;-59
2021/04/24 02:00:55;;;;;;;18.77;9.78;;;;;;;6.36;66.22;101827.16;1783855;79;25737;-59
2021/04/24 02:03:25;;;;;;;21.55;11.22;;;;;;;6.32;67.23;101826.92;1784533;80;25706;-59
2021/04/24 02:05:53;;;;;;;21.48;10.28;;;;;;;6.24;67.09;101824.66;1796764;78;27521;-59
2021/04/24 02:08:35;;;;;;;20.92;9.50;;;;;;;6.18;67.39;101829.00;1816492;77;25443;-59
2021/04/24 02:11:06;;;;;;;15.65;9.13;;;;;;;6.15;67.68;101826.48;1820932;77;25707;-59
2021/04/24 02:13:39;;;;;;;23.22;11.10;;;;;;;6.11;67.67;101829.78;1841725;77;25709;-59
2021/04/24 02:16:09;;;;;;;24.37;9.13;;;;;;;6.10;67.84;101832.06;1842050;77;25724;-59
2021/04/24 02:18:40;;;;;;;18.73;9.00;;;;;;;6.10;68.03;101827.20;1841336;77;27722;-59
2021/04/24 02:21:08;;;;;;;21.27;9.58;;;;;;;6.10;68.40;101832.55;1841629;77;25590;-59
2021/04/24 02:23:38;;;;;;;19.02;9.18;;;;;;;6.00;67.70;101832.64;1841887;77;25487;-59
2021/04/24 02:26:09;;;;;;;23.00;9.55;;;;;;;5.96;67.87;101832.75;1781679;77;26490;-59
2021/04/24 02:28:37;;;;;;;28.50;8.90;;;;;;;5.96;68.09;101831.42;1776911;79;25643;-59
2021/04/24 02:31:06;;;;;;;18.20;9.63;;;;;;;5.93;68.23;101832.94;1798194;78;28474;-59
2021/04/24 02:33:34;;;;;;;22.13;8.55;;;;;;;5.91;68.10;101832.14;1803497;78;26481;-58
2021/04/24 02:36:03;;;;;;;23.02;8.50;;;;;;;5.91;68.08;101833.97;1803657;78;25705;-58
2021/04/24 02:38:34;;;;;;;22.98;9.98;;;;;;;5.85;68.11;101834.27;1787357;79;25661;-57
2021/04/24 02:41:05;;;;;;;27.15;9.30;;;;;;;5.85;68.35;101831.14;1787462;79;25848;-58
2021/04/24 02:43:33;;;;;;;22.87;8.90;;;;;;;5.85;68.45;101827.13;1787437;80;27636;-58
2021/04/24 02:46:02;;;;;;;37.70;10.20;;;;;;;5.87;68.31;101835.91;1782669;79;25805;-57
2021/04/24 02:48:29;;;;;;;20.77;9.35;;;;;;;5.86;68.31;101835.54;1807100;79;25701;-58
2021/04/24 02:50:57;;;;;;;19.00;9.63;;;;;;;5.83;68.17;101837.02;1756694;81;26417;-58
2021/04/24 02:53:25;;;;;;;21.50;9.68;;;;;;;5.82;68.02;101837.11;1756787;81;25501;-58
2021/04/24 02:55:53;;;;;;;23.85;9.58;;;;;;;5.73;67.62;101829.09;1756714;81;28439;-58
2021/04/24 02:58:21;;;;;;;15.98;9.98;;;;;;;5.68;67.45;101828.47;1756553;81;25736;-58
2021/04/24 03:00:49;;;;;;;22.77;9.60;;;;;;;5.61;67.09;101839.92;1756746;81;25692;-58
2021/04/24 03:03:17;;;;;;;24.00;9.70;;;;;;;5.56;67.13;101839.31;1756745;81;25763;-58
2021/04/24 03:05:45;;;;;;;21.60;10.18;;;;;;;5.47;66.78;101838.80;1756684;81;25584;-59
2021/04/24 03:08:13;;;;;;;18.45;10.82;;;;;;;5.39;66.98;101838.32;1807004;79;27538;-57
2021/04/24 03:10:42;;;;;;;18.07;9.13;;;;;;;5.30;67.21;101841.44;1757461;80;25677;-58
2021/04/24 03:13:12;;;;;;;18.80;9.80;;;;;;;5.20;67.15;101843.71;1815967;77;25817;-58
2021/04/24 03:15:40;;;;;;;24.85;10.60;;;;;;;5.09;67.39;101842.03;1777691;80;25655;-58
2021/04/24 03:18:08;;;;;;;15.80;10.48;;;;;;;5.03;67.34;101844.52;1809610;79;26078;-58
2021/04/24 03:20:37;;;;;;;16.27;9.95;;;;;;;4.97;67.35;101847.03;1777605;80;27606;-58
2021/04/24 03:23:06;;;;;;;19.23;9.98;;;;;;;4.96;67.47;101848.42;1790134;80;25440;-57
2021/04/24 03:25:34;;;;;;;19.60;10.78;;;;;;;4.90;67.57;101850.05;1803944;77;25729;-57
2021/04/24 03:28:02;;;;;;;24.05;11.53;;;;;;;4.85;67.61;101855.12;1786568;78;25797;-58
2021/04/24 03:30:31;;;;;;;19.95;10.85;;;;;;;4.82;67.94;101859.28;1786435;80;25706;-57
2021/04/24 03:32:59;;;;;;;19.62;11.88;;;;;;;4.81;67.97;101865.55;1815156;77;27504;-58
2021/04/24 03:35:27;;;;;;;20.80;10.75;;;;;;;4.80;68.06;101862.94;1767548;81;25475;-58
2021/04/24 03:37:55;;;;;;;23.65;10.75;;;;;;;4.80;68.25;101866.48;1802206;79;25835;-58
2021/04/24 03:40:24;;;;;;;19.20;10.80;;;;;;;4.83;68.49;101866.35;1748070;81;25805;-61
2021/04/24 03:42:53;;;;;;;24.20;10.85;;;;;;;4.89;69.33;101866.98;1801815;79;25811;-58
2021/04/24 03:45:22;;;;;;;19.30;10.20;;;;;;;4.89;69.66;101876.32;1802087;79;27540;-58
2021/04/24 03:47:54;;;;;;;20.50;8.78;;;;;;;4.93;69.41;101876.11;1708693;81;25741;-58
2021/04/24 03:50:26;;;;;;;19.07;9.55;;;;;;;4.98;69.30;101877.22;1728252;83;25743;-58
2021/04/24 03:52:56;;;;;;;20.85;8.93;;;;;;;5.03;70.08;101883.67;1781453;80;25810;-58
2021/04/24 03:55:24;;;;;;;19.52;9.43;;;;;;;5.09;69.97;101884.25;1781515;80;26202;-58
2021/04/24 03:57:54;;;;;;;18.98;9.13;;;;;;;5.17;69.84;101887.41;1781243;79;27511;-58
2021/04/24 04:00:28;;;;;;;15.83;9.18;;;;;;;5.25;70.12;101893.70;1781379;80;25750;-58
2021/04/24 04:03:00;;;;;;;18.90;9.25;;;;;;;5.31;70.50;101888.08;1781578;79;25435;-58
2021/04/24 04:05:38;;;;;;;21.95;9.03;;;;;;;5.32;70.40;101900.48;1787903;78;25598;-58
2021/04/24 04:08:10;;;;;;;21.85;10.20;;;;;;;5.39;69.95;101897.52;1745411;81;25702;-57
2021/04/24 04:10:41;;;;;;;23.10;8.18;;;;;;;5.54;69.99;101904.76;1775851;80;27537;-58
2021/04/24 04:13:11;;;;;;;19.55;9.15;;;;;;;5.56;69.64;101901.55;1762063;79;25696;-58
2021/04/24 04:15:40;;;;;;;20.48;7.53;;;;;;;5.57;69.36;101906.41;1762256;79;25512;-58
2021/04/24 04:18:18;;;;;;;23.20;8.95;;;;;;;5.67;70.07;101907.69;1762213;81;25667;-57
2021/04/24 04:20:53;;;;;;;20.20;9.43;;;;;;;5.79;69.55;101903.53;1762219;79;25652;-58
2021/04/24 04:23:24;;;;;;;19.20;10.20;;;;;;;5.89;69.32;101903.95;1762239;79;27541;-58
2021/04/24 04:25:56;;;;;;;18.50;9.70;;;;;;;5.96;69.05;101908.88;1736037;81;25488;-58
2021/04/24 04:28:25;;;;;;;21.73;9.30;;;;;;;6.05;68.79;101907.59;1731411;81;25828;-58
2021/04/24 04:30:54;;;;;;;18.75;9.75;;;;;;;6.16;68.58;101912.86;1728823;83;25766;-59
2021/04/24 04:33:24;;;;;;;25.12;10.30;;;;;;;6.24;68.46;101907.98;1781270;80;25767;-58
2021/04/24 04:35:53;;;;;;;16.40;10.35;;;;;;;6.34;68.59;101911.02;1781399;80;28483;-58
2021/04/24 04:38:22;;;;;;;14.80;9.15;;;;;;;6.39;68.26;101912.51;1781214;80;26154;-58
2021/04/24 04:40:50;;;;;;;34.70;10.55;;;;;;;6.45;68.25;101909.14;1731315;82;25689;-59
2021/04/24 04:43:18;;;;;;;22.25;11.00;;;;;;;6.50;68.02;101913.27;1746889;82;26017;-58
2021/04/24 04:45:46;;;;;;;19.95;9.78;;;;;;;6.50;67.71;101918.61;1747489;80;25803;-61
2021/04/24 04:48:16;;;;;;;22.62;10.40;;;;;;;6.49;67.38;101920.92;1745293;82;27613;-60
2021/04/24 04:50:46;;;;;;;31.07;10.80;;;;;;;6.53;67.33;101922.47;1757077;81;26631;-61
2021/04/24 04:53:16;;;;;;;26.95;12.85;;;;;;;6.63;67.35;101919.31;1811642;79;25740;-63
2021/04/24 04:55:50;;;;;;;29.55;12.03;;;;;;;6.73;67.22;101916.05;1741531;81;25833;-60
2021/04/24 04:58:23;;;;;;;33.38;11.00;;;;;;;6.82;67.03;101915.16;1745004;81;25351;-63
2021/04/24 05:00:51;;;;;;;24.02;11.18;;;;;;;6.92;66.84;101919.06;1757169;81;28633;-62
2021/04/24 05:03:21;;;;;;;33.92;13.20;;;;;;;7.03;66.46;101919.34;1757122;81;25770;-59
2021/04/24 05:05:51;;;;;;;29.40;11.83;;;;;;;7.14;66.11;101921.41;1757170;81;25841;-61
2021/04/24 05:08:25;;;;;;;34.20;11.73;;;;;;;7.20;65.97;101925.10;1757154;81;26524;-61
2021/04/24 05:10:58;;;;;;;33.08;10.78;;;;;;;7.31;65.87;101923.16;1755080;81;26584;-60
2021/04/24 05:13:27;;;;;;;29.67;11.30;;;;;;;7.46;65.96;101924.09;1749193;81;27538;-61
2021/04/24 05:15:55;;;;;;;22.05;9.35;;;;;;;7.62;65.62;101925.40;1767725;81;26602;-61
2021/04/24 05:18:29;;;;;;;24.60;9.83;;;;;;;7.68;64.56;101930.88;1784283;79;25435;-60
2021/04/24 05:21:02;;;;;;;20.08;9.35;;;;;;;7.77;63.93;101930.84;1783925;79;26134;-60
2021/04/24 05:23:31;;;;;;;22.62;9.25;;;;;;;7.83;64.05;101930.02;1784381;79;25687;-58
2021/04/24 05:25:59;;;;;;;31.17;11.22;;;;;;;7.90;63.55;101930.98;1784383;80;27590;-58
2021/04/24 05:28:27;;;;;;;18.80;7.85;;;;;;;8.04;63.62;101932.84;1784218;80;25710;-58
2021/04/24 05:30:58;;;;;;;18.85;7.37;;;;;;;8.13;61.53;101929.62;1784261;80;25797;-58
2021/04/24 05:33:26;;;;;;;10.40;6.15;;;;;;;8.20;59.10;101936.83;1784073;79;25776;-58
2021/04/24 05:35:54;;;;;;;18.20;8.48;;;;;;;8.26;57.61;101933.77;1784288;79;25509;-57
2021/04/24 05:38:22;;;;;;;16.48;6.85;;;;;;;8.28;58.06;101940.75;1784272;80;27613;-58
2021/04/24 05:40:50;;;;;;;12.18;6.15;;;;;;;8.34;57.36;101938.18;1784143;80;25781;-59
2021/04/24 05:43:18;;;;;;;11.45;6.00;;;;;;;8.40;57.30;101940.48;1784360;80;25674;-60
2021/04/24 05:45:50;;;;;;;18.42;6.50;;;;;;;8.43;55.72;101948.81;1783898;79;25862;-62
2021/04/24 05:48:18;;;;;;;14.43;6.78;;;;;;;8.36;55.15;101950.14;1783786;80;25488;-60
2021/04/24 05:50:49;;;;;;;19.15;9.00;;;;;;;8.36;55.44;101955.05;1785943;78;27585;-61
2021/04/24 05:53:20;;;;;;;11.50;5.72;;;;;;;8.38;55.43;101953.60;1765037;81;25772;-61
2021/04/24 05:55:48;;;;;;;17.55;6.47;;;;;;;8.43;54.78;101952.37;1796768;78;25622;-60
2021/04/24 05:58:18;;;;;;;16.60;7.15;;;;;;;8.47;54.59;101954.42;1836069;78;25748;-63
2021/04/24 06:00:50;;;;;;;15.03;6.20;;;;;;;8.55;54.64;101960.67;1796999;79;25665;-61
2021/04/24 06:03:19;;;;;;;10.72;6.37;;;;;;;8.63;53.28;101955.70;1836382;78;28404;-60
2021/04/24 06:05:48;;;;;;;18.87;5.78;;;;;;;8.56;51.56;101961.91;1780949;79;26080;-59
2021/04/24 06:08:16;;;;;;;12.50;5.92;;;;;;;8.54;53.05;101963.81;1722279;82;25640;-59
2021/04/24 06:10:44;;;;;;;17.42;5.95;;;;;;;8.66;53.22;101963.53;1785676;79;25936;-58
2021/04/24 06:13:12;;;;;;;14.93;5.58;;;;;;;8.80;53.40;101963.17;1814987;78;25604;-59
2021/04/24 06:15:40;;;;;;;12.35;6.25;;;;;;;8.92;53.26;101963.73;1813447;79;27593;-58
2021/04/24 06:18:09;;;;;;;14.03;6.22;;;;;;;9.02;53.11;101958.17;1813318;79;26366;-58
2021/04/24 06:20:39;;;;;;;11.12;6.20;;;;;;;9.22;53.00;101959.61;1813393;79;25656;-59
2021/04/24 06:23:07;;;;;;;15.03;6.35;;;;;;;9.39;52.49;101961.69;1813407;78;25594;-59
2021/04/24 06:25:35;;;;;;;9.28;5.20;;;;;;;9.48;51.71;101951.69;1790432;79;26169;-58
2021/04/24 06:28:05;;;;;;;12.70;5.37;;;;;;;9.61;51.94;101957.12;1781289;79;27528;-58
2021/04/24 06:30:33;;;;;;;12.10;6.12;;;;;;;9.62;51.24;101960.19;1781170;80;25660;-58
2021/04/24 06:33:01;;;;;;;11.08;5.85;;;;;;;9.61;50.10;101962.95;1781126;79;25627;-58
2021/04/24 06:35:30;;;;;;;12.63;5.80;;;;;;;9.59;50.04;101964.91;1781180;80;25592;-58
2021/04/24 06:37:58;;;;;;;11.12;5.12;;;;;;;9.59;50.06;101965.75;1781268;79;26006;-58
2021/04/24 06:40:27;;;;;;;15.40;6.60;;;;;;;9.54;49.74;101961.17;1781304;80;28438;-59
2021/04/24 06:42:55;;;;;;;11.60;6.37;;;;;;;9.51;50.30;101968.93;1781194;79;25442;-58
2021/04/24 06:45:24;;;;;;;11.12;6.22;;;;;;;9.45;50.52;101973.37;1797630;78;25805;-58
2021/04/24 06:47:52;;;;;;;13.43;6.37;;;;;;;9.36;50.14;101970.81;1803792;78;26385;-58
2021/04/24 06:50:22;;;;;;;19.45;7.08;;;;;;;9.35;49.98;101969.55;1802881;78;25824;-59
2021/04/24 06:52:50;;;;;;;11.48;5.85;;;;;;;9.46;51.06;101970.22;1802788;78;28495;-59
2021/04/24 06:55:18;;;;;;;10.70;5.60;;;;;;;9.50;49.95;101967.70;1802783;79;26238;-59
2021/04/24 06:57:47;;;;;;;12.50;7.10;;;;;;;9.43;49.15;101982.49;1802655;79;25567;-59
2021/04/24 07:00:17;;;;;;;12.00;6.22;;;;;;;9.47;50.44;101984.88;1802856;79;26323;-58
2021/04/24 07:02:46;;;;;;;12.65;6.12;;;;;;;9.62;50.39;101980.34;1802716;78;26229;-59
2021/04/24 07:05:16;;;;;;;13.18;5.83;;;;;;;9.77;49.56;101976.25;1804208;77;27517;-59
2021/04/24 07:07:45;;;;;;;15.43;5.62;;;;;;;9.97;48.88;101973.11;1813871;77;25673;-58
2021/04/24 07:10:14;;;;;;;11.33;5.58;;;;;;;10.10;48.25;101980.33;1813680;79;25728;-58
2021/04/24 07:12:42;;;;;;;18.73;5.85;;;;;;;10.16;48.84;101979.45;1842400;77;25725;-58
2021/04/24 07:15:13;;;;;;;13.93;6.00;;;;;;;10.24;49.30;101982.97;1849630;77;25439;-58
2021/04/24 07:17:41;;;;;;;13.83;5.78;;;;;;;10.33;48.97;101985.03;1783488;80;27525;-58
2021/04/24 07:20:13;;;;;;;10.05;6.50;;;;;;;10.33;48.22;101992.22;1815524;79;26197;-58
2021/04/24 07:22:41;;;;;;;10.45;5.65;;;;;;;10.38;48.31;101990.13;1783217;79;25874;-58
2021/04/24 07:25:11;;;;;;;9.23;5.55;;;;;;;10.40;48.83;101994.05;1757500;80;25683;-58
2021/04/24 07:27:39;;;;;;;14.47;6.10;;;;;;;10.52;48.80;101999.95;1803368;78;25701;-57
2021/04/24 07:30:10;;;;;;;19.02;5.78;;;;;;;10.56;47.76;101994.72;1803426;78;27522;-58
2021/04/24 07:32:39;;;;;;;10.53;5.30;;;;;;;10.59;47.83;101994.98;1803310;79;26102;-58
2021/04/24 07:35:10;;;;;;;15.10;5.83;;;;;;;10.62;47.49;102001.50;1803394;79;25831;-59
2021/04/24 07:37:37;;;;;;;15.83;6.75;;;;;;;10.71;47.80;101991.45;1803269;79;25698;-59
2021/04/24 07:40:08;;;;;;;12.30;5.65;;;;;;;10.75;47.16;101992.97;1803561;79;25645;-59
2021/04/24 07:42:36;;;;;;;15.10;6.03;;;;;;;10.83;47.41;101992.41;1803417;79;27520;-59
2021/04/24 07:45:06;;;;;;;16.77;6.08;;;;;;;10.92;47.13;101983.69;1803186;78;26088;-59
2021/04/24 07:47:34;;;;;;;14.10;6.03;;;;;;;10.89;47.01;101984.39;1816444;78;25629;-59
2021/04/24 07:50:04;;;;;;;18.60;6.25;;;;;;;10.69;45.62;101992.53;1785706;78;25673;-59
2021/04/24 07:52:32;;;;;;;12.20;5.75;;;;;;;10.49;45.59;101998.80;1784336;79;25703;-59
2021/04/24 07:55:01;;;;;;;12.55;5.30;;;;;;;10.47;45.87;102003.42;1784342;80;28256;-58
2021/04/24 07:57:30;;;;;;;10.80;5.72;;;;;;;10.53;46.40;101998.10;1784241;79;25674;-59
2021/04/24 07:59:58;;;;;;;12.95;5.12;;;;;;;10.74;46.65;101995.75;1784354;80;25757;-59
2021/04/24 08:02:27;;;;;;;10.72;6.12;;;;;;;10.83;46.22;101994.25;1784283;79;25660;-63
2021/04/24 08:04:56;;;;;;;15.63;5.62;;;;;;;10.80;44.12;102004.27;1784645;78;25984;-60
2021/04/24 08:07:25;;;;;;;16.93;6.47;;;;;;;10.72;45.06;101997.67;1814285;79;28899;-63
2021/04/24 08:09:53;;;;;;;19.48;6.55;;;;;;;10.95;45.39;102005.48;1814174;79;26530;-58
2021/04/24 08:12:22;;;;;;;12.58;5.12;;;;;;;11.18;46.01;102013.78;1840135;77;25689;-59
2021/04/24 08:14:50;;;;;;;13.10;5.87;;;;;;;11.49;46.04;102003.00;1849994;77;26578;-58
2021/04/24 08:17:18;;;;;;;10.60;5.67;;;;;;;11.70;45.48;101998.33;1850031;77;26184;-58
2021/04/24 08:19:46;;;;;;;12.90;5.47;;;;;;;11.81;45.44;101995.70;1850005;77;28485;-59
2021/04/24 08:22:14;;;;;;;25.72;6.72;;;;;;;11.87;43.54;101989.87;1849876;77;25703;-59
2021/04/24 08:24:42;;;;;;;14.20;5.85;;;;;;;11.88;44.08;101990.22;1849980;77;25428;-58
2021/04/24 08:27:10;;;;;;;15.95;6.22;;;;;;;11.81;42.99;101988.12;1850022;77;25644;-58
2021/04/24 08:29:38;;;;;;;15.35;6.08;;;;;;;11.67;43.37;101988.64;1850058;77;25889;-58
2021/04/24 08:32:06;;;;;;;14.05;6.00;;;;;;;11.83;44.18;101996.45;1849951;77;27469;-59
2021/04/24 08:34:34;;;;;;;10.05;5.58;;;;;;;12.07;44.39;101996.96;1783296;79;25674;-58
2021/04/24 08:37:03;;;;;;;10.63;4.40;;;;;;;12.10;41.45;101994.55;1783542;80;25808;-59
2021/04/24 08:39:31;;;;;;;10.18;5.20;;;;;;;12.01;38.50;101994.23;1815749;79;26326;-58
2021/04/24 08:41:59;;;;;;;10.75;5.50;;;;;;;12.00;39.81;101991.19;1764538;80;25631;-57
2021/04/24 08:44:27;;;;;;;45.83;18.02;;;;;;;12.20;39.78;101988.80;1783568;79;27543;-57
2021/04/24 08:46:55;;;;;;;19.35;5.80;;;;;;;12.40;39.64;101988.64;1768875;81;25760;-58
2021/04/24 08:49:26;;;;;;;10.65;5.20;;;;;;;12.72;39.93;101983.91;1768525;81;25613;-59
2021/04/24 08:51:54;;;;;;;8.13;4.97;;;;;;;12.91;40.00;101980.60;1814673;78;26504;-59
2021/04/24 08:54:23;;;;;;;11.15;5.10;;;;;;;13.09;39.40;101981.46;1812235;78;26231;-59
2021/04/24 08:56:51;;;;;;;33.73;12.75;;;;;;;13.13;39.46;101984.30;1807476;78;27527;-59
2021/04/24 08:59:19;;;;;;;14.07;7.33;;;;;;;12.96;38.37;101984.28;1816259;78;26189;-59
2021/04/24 09:01:47;;;;;;;14.78;7.37;;;;;;;12.86;39.89;101972.52;1816613;78;25745;-59
2021/04/24 09:04:15;;;;;;;12.20;4.90;;;;;;;12.97;40.44;101977.44;1816568;78;26425;-59
2021/04/24 09:06:46;;;;;;;16.25;6.10;;;;;;;13.30;40.68;101964.88;1815346;78;25450;-62
2021/04/24 09:09:23;;;;;;;17.23;7.08;;;;;;;13.60;40.24;101961.16;1750871;81;27558;-59
2021/04/24 09:11:56;;;;;;;15.30;6.33;;;;;;;13.63;37.74;101968.19;1792183;79;25800;-59
2021/04/24 09:14:26;;;;;;;21.65;5.92;;;;;;;13.50;39.27;101961.55;1763512;80;25907;-59
2021/04/24 09:16:55;;;;;;;16.57;5.08;;;;;;;13.53;39.13;101966.72;1827079;78;26460;-58
2021/04/24 09:19:38;;;;;;;14.03;5.28;;;;;;;13.61;38.99;101958.83;1817232;78;26120;-59
2021/04/24 09:22:17;;;;;;;14.85;5.28;;;;;;;13.74;39.97;101956.84;1810143;78;27511;-59
2021/04/24 09:24:52;;;;;;;12.37;5.20;;;;;;;13.78;38.17;101949.32;1816905;78;25632;-59
2021/04/24 09:27:43;;;;;;;24.52;5.53;;;;;;;14.42;38.04;101948.02;1817040;78;25689;-57
2021/04/24 09:30:23;;;;;;;10.38;5.50;;;;;;;15.14;34.95;101952.56;1830689;78;25357;-58
2021/04/24 09:32:51;;;;;;;13.70;5.87;;;;;;;14.74;35.59;101942.53;1805429;78;25747;-60
2021/04/24 09:35:21;;;;;;;15.18;5.03;;;;;;;14.70;35.40;101950.08;1805320;79;27607;-59
2021/04/24 09:38:01;;;;;;;14.18;5.83;;;;;;;14.80;35.25;101948.76;1805272;79;25849;-58
2021/04/24 09:40:31;;;;;;;14.87;4.67;;;;;;;14.71;35.82;101943.67;1805273;79;25426;-58
2021/04/24 09:43:07;;;;;;;14.98;5.05;;;;;;;14.44;35.27;101931.16;1805513;79;25819;-59
2021/04/24 09:45:42;;;;;;;11.40;4.72;;;;;;;14.77;36.35;101925.15;1805490;79;25631;-59
2021/04/24 09:48:25;;;;;;;16.95;4.92;;;;;;;15.18;36.55;101922.81;1805434;78;28455;-58
2021/04/24 09:50:54;;;;;;;9.93;5.10;;;;;;;15.57;35.69;101930.16;1802030;78;25841;-59
2021/04/24 09:53:25;;;;;;;10.20;4.90;;;;;;;15.46;33.87;101925.73;1790295;79;25681;-58
2021/04/24 09:55:55;;;;;;;11.00;5.42;;;;;;;15.23;34.50;101921.55;1802091;79;26059;-60
2021/04/24 09:58:27;;;;;;;9.28;4.50;;;;;;;14.94;35.01;101918.25;1805421;79;25646;-59
2021/04/24 10:01:20;;;;;;;11.30;4.55;;;;;;;15.07;36.18;101926.13;1803372;79;27530;-59
2021/04/24 10:03:50;;;;;;;9.00;4.87;;;;;;;15.72;36.01;101923.83;1805568;79;26151;-58
2021/04/24 10:06:29;;;;;;;15.20;4.70;;;;;;;16.72;34.35;101908.61;1807326;78;25642;-58
2021/04/24 10:09:20;;;;;;;12.03;5.17;;;;;;;17.90;34.43;101906.05;1808594;78;26386;-58
2021/04/24 10:11:53;;;;;;;14.55;4.42;;;;;;;19.08;32.31;101908.36;1804155;77;25659;-59
2021/04/24 10:14:39;;;;;;;12.18;4.28;;;;;;;19.32;31.19;101903.98;1808838;79;28353;-59
2021/04/24 10:17:14;;;;;;;12.07;4.65;;;;;;;19.02;30.17;101902.70;1808392;77;25743;-59
2021/04/24 10:19:45;;;;;;;16.07;4.62;;;;;;;18.24;31.26;101903.12;1808558;79;25722;-59
2021/04/24 10:22:20;;;;;;;11.80;4.15;;;;;;;17.85;30.14;101901.56;1808449;78;25634;-59
2021/04/24 10:24:49;;;;;;;10.65;4.65;;;;;;;17.23;31.06;101902.83;1793398;79;26185;-58
2021/04/24 10:27:19;;;;;;;8.88;4.80;;;;;;;16.75;32.11;101909.68;1784369;79;28462;-58
2021/04/24 10:29:48;;;;;;;10.82;4.83;;;;;;;16.42;31.83;101905.16;1786740;78;25709;-58
2021/04/24 10:32:18;;;;;;;10.78;4.62;;;;;;;16.81;31.63;101905.00;1801014;79;25769;-59
2021/04/24 10:34:46;;;;;;;12.20;3.95;;;;;;;16.41;32.21;101904.28;1800859;78;25627;-59
2021/04/24 10:37:14;;;;;;;12.23;4.00;;;;;;;16.13;32.91;101912.84;1778051;79;25764;-59
2021/04/24 10:39:42;;;;;;;7.03;4.55;;;;;;;15.95;32.81;101904.08;1769163;81;28413;-59
2021/04/24 10:42:25;;;;;;;9.73;4.10;;;;;;;15.94;33.23;101902.88;1782451;79;26181;-59
2021/04/24 10:44:57;;;;;;;13.30;4.78;;;;;;;16.30;33.17;101898.16;1788287;78;25762;-59
2021/04/24 10:47:44;;;;;;;8.35;4.17;;;;;;;16.77;31.78;101896.80;1774308;79;26137;-60
2021/04/24 10:50:18;;;;;;;16.35;4.42;;;;;;;17.04;30.92;101894.62;1800386;79;25714;-57
2021/04/24 10:52:48;;;;;;;12.30;5.37;;;;;;;17.06;31.46;101891.77;1785472;79;27554;-59
2021/04/24 10:55:26;;;;;;;11.55;3.70;;;;;;;17.94;31.21;101894.34;1785082;79;25728;-60
2021/04/24 10:57:58;;;;;;;11.83;3.65;;;;;;;18.61;28.68;101891.94;1773401;79;26373;-58
2021/04/24 11:00:33;;;;;;;8.15;3.05;;;;;;;19.74;27.80;101893.99;1771537;78;25697;-58
2021/04/24 11:03:01;;;;;;;13.08;3.92;;;;;;;20.47;27.81;101883.22;1782160;79;25903;-59
2021/04/24 11:05:49;;;;;;;11.43;2.95;;;;;;;20.24;26.15;101885.83;1784190;79;27217;-62
2021/04/24 11:08:26;;;;;;;12.33;3.77;;;;;;;20.56;24.72;101878.07;1741476;81;26693;-58
2021/04/24 11:11:16;;;;;;;4.85;3.30;;;;;;;20.50;24.90;101874.65;1772226;78;25732;-61
2021/04/24 11:13:54;;;;;;;17.65;4.00;;;;;;;20.49;24.83;101882.51;1787113;79;25705;-60
2021/04/24 11:16:31;;;;;;;5.85;3.45;;;;;;;21.00;25.17;101885.45;1784110;79;25702;-61
2021/04/24 11:18:55;;;;;;;7.30;2.90;;;;;;;20.90;24.68;101881.05;1799237;79;27530;-61
2021/04/24 11:21:27;;;;;;;6.03;3.58;;;;;;;20.16;22.87;101888.92;1799624;79;25693;-59
2021/04/24 11:24:14;;;;;;;9.23;3.42;;;;;;;19.39;24.36;101883.72;1799678;79;25579;-58
2021/04/24 11:26:46;;;;;;;5.92;3.45;;;;;;;18.17;24.99;101882.47;1799786;79;25702;-58
2021/04/24 11:29:36;;;;;;;10.33;4.27;;;;;;;17.77;27.14;101875.64;1786621;78;26155;-59
2021/04/24 11:32:10;;;;;;;8.90;3.50;;;;;;;17.74;27.79;101878.17;1787169;79;28409;-58
2021/04/24 11:34:45;;;;;;;10.65;3.65;;;;;;;17.52;27.87;101882.22;1779740;79;25450;-58
2021/04/24 11:37:24;;;;;;;6.75;3.40;;;;;;;17.18;28.42;101883.73;1794880;78;25736;-58